Time;durP1;ratioP1;P1;durP2;ratioP2;P2;SDS_P1;SDS_P2;PMS_P1;PMS_P2;Temp;Humidity;BMP_temperature;BMP_pressure;BME280_temperature;BME280_humidity;BME280_pressure;Samples;Min_cycle;Max_cycle;Signal;HPM_P1;HPM_P2
2022/09/08 00:00:04;;;;;;;0.00;0.00;;;15.20;99.90;;;;;;8296098;28;20049;-80
2022/09/08 00:04:05;;;;;;;0.00;0.00;;;15.40;99.90;;;;;;8309334;28;20025;-79
2022/09/08 00:08:07;;;;;;;0.00;0.00;;;15.40;99.90;;;;;;8316710;28;20024;-79
2022/09/08 00:12:11;;;;;;;0.00;0.00;;;15.40;99.90;;;;;;8319485;28;20052;-80
2022/09/08 00:16:12;;;;;;;0.00;0.00;;;15.40;99.90;;;;;;8302716;28;20674;-79
2022/09/08 00:20:13;;;;;;;0.08;0.08;;;15.40;99.90;;;;;;8311410;28;20528;-80
2022/09/08 00:24:14;;;;;;;0.17;0.17;;;15.40;99.90;;;;;;8299165;28;20022;-80
2022/09/08 00:28:14;;;;;;;0.00;0.00;;;15.40;99.90;;;;;;8292686;28;20434;-80
2022/09/08 00:32:15;;;;;;;0.00;0.00;;;15.50;99.90;;;;;;8308534;28;20024;-81
2022/09/08 00:36:17;;;;;;;0.03;0.03;;;15.30;99.90;;;;;;8294028;28;20032;-80
2022/09/08 00:40:19;;;;;;;0.00;0.00;;;15.30;99.90;;;;;;8313635;28;20101;-80
2022/09/08 00:44:54;;;;;;;0.00;0.00;;;15.30;99.90;;;;;;8293850;28;20603;-80
2022/09/08 00:49:23;;;;;;;0.10;0.10;;;15.50;99.90;;;;;;8264422;28;20499;-80
2022/09/08 00:53:25;;;;;;;0.00;0.00;;;15.50;99.90;;;;;;8298220;28;20041;-80
2022/09/08 00:57:26;;;;;;;0.00;0.00;;;15.40;99.90;;;;;;8294063;28;20515;-81
2022/09/08 01:01:26;;;;;;;0.10;0.10;;;15.60;99.90;;;;;;8292262;28;20032;-79
2022/09/08 01:05:37;;;;;;;0.05;0.05;;;15.50;99.90;;;;;;8295678;28;20022;-79
2022/09/08 01:14:00;;;;;;;0.10;0.10;;;15.40;99.90;;;;;;8306558;28;19916;-79
2022/09/08 01:18:01;;;;;;;0.00;0.00;;;15.50;99.90;;;;;;8310065;28;20488;-79
2022/09/08 01:22:20;;;;;;;0.10;0.10;;;15.50;99.90;;;;;;8307438;28;20033;-80
2022/09/08 01:26:39;;;;;;;0.00;0.00;;;15.40;99.90;;;;;;8291761;28;20022;-80
2022/09/08 01:30:41;;;;;;;0.00;0.00;;;15.40;99.90;;;;;;8294451;28;20466;-80
2022/09/08 01:34:44;;;;;;;0.00;0.00;;;15.40;99.90;;;;;;8300040;28;20021;-81
2022/09/08 01:38:45;;;;;;;0.00;0.00;;;15.30;99.90;;;;;;8297473;28;20022;-80
2022/09/08 01:42:45;;;;;;;0.10;0.10;;;15.50;99.90;;;;;;8323383;28;20033;-81
2022/09/08 01:46:46;;;;;;;0.00;0.00;;;15.50;99.90;;;;;;8302856;28;20021;-81
2022/09/08 01:50:46;;;;;;;0.10;0.10;;;15.30;99.90;;;;;;8290437;28;20022;-81
2022/09/08 01:54:47;;;;;;;0.10;0.10;;;15.30;99.90;;;;;;8298896;28;20061;-81
2022/09/08 01:58:48;;;;;;;0.00;0.00;;;15.20;99.90;;;;;;8311056;28;20080;-81
2022/09/08 02:02:48;;;;;;;0.00;0.00;;;15.20;99.90;;;;;;8299270;28;20035;-81
2022/09/08 02:06:49;;;;;;;0.10;0.10;;;15.10;99.90;;;;;;8311659;28;20033;-81
2022/09/08 02:10:54;;;;;;;0.00;0.00;;;15.10;99.90;;;;;;8313881;28;20021;-82
2022/09/08 02:14:55;;;;;;;0.00;0.00;;;15.10;99.90;;;;;;8299851;28;20061;-82
2022/09/08 02:18:55;;;;;;;0.05;0.05;;;15.10;99.90;;;;;;8294760;28;20026;-81
2022/09/08 02:22:56;;;;;;;0.00;0.00;;;15.20;99.90;;;;;;8300782;28;20037;-82
2022/09/08 02:26:57;;;;;;;0.00;0.00;;;15.20;99.90;;;;;;8308441;28;20048;-81
2022/09/08 02:30:59;;;;;;;0.00;0.00;;;15.30;99.90;;;;;;8314308;28;20505;-82
2022/09/08 02:34:59;;;;;;;0.00;0.00;;;15.40;99.90;;;;;;8308382;28;20459;-82
2022/09/08 02:39:00;;;;;;;0.10;0.10;;;15.40;99.90;;;;;;8316999;28;20026;-81
2022/09/08 02:43:01;;;;;;;0.03;0.03;;;15.40;99.90;;;;;;8328540;28;20114;-82
2022/09/08 02:47:02;;;;;;;0.10;0.10;;;15.50;99.90;;;;;;8332012;28;20175;-82
2022/09/08 02:51:04;;;;;;;0.00;0.00;;;15.50;99.90;;;;;;8318511;28;20018;-83
2022/09/08 02:55:05;;;;;;;0.05;0.05;;;15.40;99.90;;;;;;8305992;28;20037;-84
2022/09/08 02:59:06;;;;;;;0.00;0.00;;;15.40;99.90;;;;;;8305566;28;20053;-83
2022/09/08 03:03:06;;;;;;;0.00;0.00;;;15.30;99.90;;;;;;8321693;28;20044;-83
2022/09/08 03:07:08;;;;;;;0.10;0.10;;;15.30;99.90;;;;;;8310245;28;20026;-82
2022/09/08 03:11:09;;;;;;;0.00;0.00;;;15.20;99.90;;;;;;8310936;28;20088;-83
2022/09/08 03:15:10;;;;;;;0.00;0.00;;;15.20;99.90;;;;;;8327391;28;20064;-83
2022/09/08 03:19:10;;;;;;;0.00;0.00;;;15.20;99.90;;;;;;8294553;28;20021;-82
2022/09/08 03:23:19;;;;;;;0.10;0.10;;;15.10;99.90;;;;;;8310210;28;20083;-83
2022/09/08 03:27:19;;;;;;;0.00;0.00;;;15.20;99.90;;;;;;8327228;28;20109;-83
2022/09/08 03:31:22;;;;;;;0.00;0.00;;;15.10;99.90;;;;;;8311234;28;20017;-83
2022/09/08 03:35:22;;;;;;;0.00;0.00;;;15.10;99.90;;;;;;8321401;28;20499;-83
2022/09/08 03:39:23;;;;;;;0.00;0.00;;;15.10;99.90;;;;;;8315281;28;20029;-84
2022/09/08 03:43:24;;;;;;;0.00;0.00;;;15.10;99.90;;;;;;8317480;28;20033;-83
2022/09/08 03:47:24;;;;;;;0.00;0.00;;;15.10;99.90;;;;;;8298355;28;20061;-83
2022/09/08 03:51:25;;;;;;;0.00;0.00;;;15.00;99.90;;;;;;8290517;28;20641;-83
2022/09/08 03:55:26;;;;;;;0.00;0.00;;;14.90;99.90;;;;;;8293064;28;20061;-82
2022/09/08 03:59:28;;;;;;;0.00;0.00;;;14.90;99.90;;;;;;8297956;28;20021;-82
2022/09/08 04:03:29;;;;;;;0.00;0.00;;;14.80;99.90;;;;;;8307196;28;20028;-81
2022/09/08 04:07:31;;;;;;;0.10;0.10;;;14.80;99.90;;;;;;8297533;28;20038;-83
2022/09/08 04:11:32;;;;;;;0.05;0.05;;;14.70;99.90;;;;;;8292651;28;20105;-82
2022/09/08 04:15:32;;;;;;;0.00;0.00;;;14.70;99.90;;;;;;8290993;28;20025;-82
2022/09/08 04:19:33;;;;;;;0.00;0.00;;;14.80;99.90;;;;;;8288614;28;20080;-82
2022/09/08 04:23:34;;;;;;;0.00;0.00;;;14.80;99.90;;;;;;8293395;28;20095;-82
2022/09/08 04:27:35;;;;;;;0.00;0.00;;;14.80;99.90;;;;;;8295111;28;20036;-82
2022/09/08 04:31:35;;;;;;;0.00;0.00;;;14.90;99.90;;;;;;8307232;28;20519;-82
2022/09/08 04:35:36;;;;;;;0.00;0.00;;;15.10;99.90;;;;;;8309593;28;20036;-82
2022/09/08 04:39:37;;;;;;;0.00;0.00;;;15.10;99.90;;;;;;8302006;28;20057;-81
2022/09/08 04:43:39;;;;;;;0.00;0.00;;;15.10;99.90;;;;;;8287055;28;20033;-81
2022/09/08 04:47:40;;;;;;;0.05;0.05;;;15.20;99.90;;;;;;8294524;28;20025;-80
2022/09/08 04:51:42;;;;;;;0.00;0.00;;;15.30;99.90;;;;;;8314627;28;20514;-81
2022/09/08 04:55:43;;;;;;;0.00;0.00;;;15.30;99.90;;;;;;8311209;28;20038;-81
2022/09/08 04:59:44;;;;;;;0.05;0.05;;;15.40;99.90;;;;;;8284043;28;20026;-81
2022/09/08 05:03:45;;;;;;;0.00;0.00;;;15.50;99.90;;;;;;8303091;28;20029;-80
2022/09/08 05:07:49;;;;;;;0.00;0.00;;;15.50;99.90;;;;;;8280050;28;20026;-81
2022/09/08 05:11:49;;;;;;;0.00;0.00;;;15.50;99.90;;;;;;8299442;28;20021;-81
2022/09/08 05:15:50;;;;;;;0.00;0.00;;;15.60;99.90;;;;;;8282342;28;20033;-82
2022/09/08 05:19:50;;;;;;;0.10;0.10;;;15.60;99.90;;;;;;8298331;28;20046;-81
2022/09/08 05:23:53;;;;;;;0.10;0.10;;;15.50;99.90;;;;;;8279267;28;20400;-80
2022/09/08 05:27:53;;;;;;;0.10;0.10;;;15.60;99.90;;;;;;8292705;28;20054;-79
2022/09/08 05:31:54;;;;;;;0.00;0.00;;;15.50;99.90;;;;;;8303872;28;20562;-81
2022/09/08 05:35:54;;;;;;;0.08;0.08;;;15.40;99.90;;;;;;8289852;28;20117;-81
2022/09/08 05:39:55;;;;;;;0.00;0.00;;;15.40;99.90;;;;;;8292327;28;20380;-81
2022/09/08 05:43:57;;;;;;;0.10;0.10;;;15.40;99.90;;;;;;8313471;28;20033;-81
2022/09/08 05:47:57;;;;;;;0.00;0.00;;;15.40;99.90;;;;;;8308438;28;20554;-82
2022/09/08 05:51:58;;;;;;;0.00;0.00;;;15.30;99.90;;;;;;8307571;28;20025;-81
2022/09/08 05:56:02;;;;;;;0.00;0.00;;;15.30;99.90;;;;;;8285649;28;20076;-82
2022/09/08 06:00:04;;;;;;;0.00;0.00;;;15.30;99.90;;;;;;8289601;28;20082;-82
2022/09/08 06:04:04;;;;;;;0.10;0.10;;;15.40;99.90;;;;;;8309872;28;20061;-82
2022/09/08 06:08:05;;;;;;;0.00;0.00;;;15.30;99.90;;;;;;8288250;28;20041;-82
2022/09/08 06:12:06;;;;;;;0.00;0.00;;;15.30;99.90;;;;;;8307399;28;20035;-81
2022/09/08 06:16:12;;;;;;;0.10;0.10;;;15.40;99.90;;;;;;8313210;28;20534;-82
2022/09/08 06:20:12;;;;;;;0.10;0.10;;;15.40;99.90;;;;;;8287250;28;20055;-82
2022/09/08 06:24:13;;;;;;;0.00;0.00;;;15.40;99.90;;;;;;8290184;28;20030;-82
2022/09/08 06:28:41;;;;;;;0.00;0.00;;;15.40;99.90;;;;;;8305981;28;20604;-81
2022/09/08 06:32:50;;;;;;;0.05;0.05;;;15.50;99.90;;;;;;8296343;28;20036;-81
2022/09/08 06:36:55;;;;;;;0.10;0.10;;;15.60;99.90;;;;;;8311958;28;20029;-81
2022/09/08 06:41:16;;;;;;;0.10;0.10;;;15.60;99.90;;;;;;8308679;28;20487;-81
2022/09/08 06:45:26;;;;;;;0.10;0.10;;;15.70;99.90;;;;;;8303303;28;20059;-81
2022/09/08 06:49:28;;;;;;;0.10;0.10;;;15.70;99.90;;;;;;8293088;28;20034;-81
2022/09/08 06:53:57;;;;;;;0.00;0.00;;;15.60;99.90;;;;;;8306190;28;20059;-82
2022/09/08 06:58:29;;;;;;;0.10;0.10;;;15.70;99.90;;;;;;8277181;28;20050;-81
2022/09/08 07:02:44;;;;;;;0.10;0.10;;;15.80;99.90;;;;;;8306414;28;20176;-81
2022/09/08 07:06:53;;;;;;;0.10;0.10;;;15.70;99.90;;;;;;8287979;28;20032;-82
2022/09/08 07:11:03;;;;;;;0.00;0.00;;;15.70;99.90;;;;;;8306807;28;20038;-82
2022/09/08 07:15:19;;;;;;;0.00;0.00;;;15.80;99.90;;;;;;8312187;28;20563;-81
2022/09/08 07:19:41;;;;;;;0.10;0.10;;;15.80;99.90;;;;;;8312247;28;20043;-82
2022/09/08 07:23:43;;;;;;;0.30;0.30;;;15.80;99.90;;;;;;8290143;28;20096;-82
2022/09/08 07:27:49;;;;;;;0.00;0.00;;;16.00;99.90;;;;;;8284951;28;20491;-82
2022/09/08 07:31:51;;;;;;;0.10;0.10;;;16.00;99.90;;;;;;8288265;28;20022;-82
2022/09/08 07:36:33;;;;;;;0.00;0.00;;;15.90;99.90;;;;;;8292920;28;20049;-82
2022/09/08 07:40:43;;;;;;;0.00;0.00;;;15.90;99.90;;;;;;8202745;28;20045;-82
2022/09/08 07:44:46;;;;;;;0.10;0.10;;;16.10;99.90;;;;;;8310666;28;20080;-82
2022/09/08 07:49:26;;;;;;;0.10;0.10;;;16.30;99.90;;;;;;8305944;28;20021;-82
2022/09/08 07:53:55;;;;;;;0.00;0.00;;;16.40;99.90;;;;;;8247701;28;20045;-81
2022/09/08 07:58:25;;;;;;;0.00;0.00;;;16.20;99.90;;;;;;8303185;28;20034;-82
2022/09/08 08:02:46;;;;;;;0.10;0.10;;;16.10;99.90;;;;;;8294840;28;20053;-82
2022/09/08 08:06:50;;;;;;;0.10;0.10;;;16.20;99.90;;;;;;8284110;28;20068;-82
2022/09/08 08:11:10;;;;;;;0.00;0.00;;;16.20;99.90;;;;;;8308962;28;20038;-82
2022/09/08 08:15:24;;;;;;;0.10;0.10;;;16.30;99.90;;;;;;8300711;28;20095;-83
2022/09/08 08:19:52;;;;;;;0.00;0.00;;;16.70;99.90;;;;;;8318189;28;20025;-83
2022/09/08 08:24:02;;;;;;;0.00;0.00;;;17.00;99.90;;;;;;8304587;28;20372;-83
2022/09/08 08:28:18;;;;;;;0.00;0.00;;;17.10;99.90;;;;;;8289368;28;20030;-83
2022/09/08 08:32:36;;;;;;;0.10;0.10;;;17.10;99.90;;;;;;8305208;28;20440;-82
2022/09/08 08:36:44;;;;;;;0.00;0.00;;;16.80;99.90;;;;;;8287579;28;20353;-83
2022/09/08 08:40:58;;;;;;;0.03;0.03;;;16.70;99.90;;;;;;8287865;28;20033;-83
2022/09/08 08:45:11;;;;;;;0.00;0.00;;;17.30;99.90;;;;;;8293478;28;20033;-83
2022/09/08 08:49:33;;;;;;;0.00;0.00;;;18.00;99.90;;;;;;8296159;28;20018;-82
2022/09/08 08:53:55;;;;;;;0.10;0.10;;;18.10;99.90;;;;;;8296649;28;20034;-82
2022/09/08 08:57:55;;;;;;;0.10;0.10;;;18.20;99.90;;;;;;8289368;28;20113;-82
2022/09/08 09:02:22;;;;;;;0.00;0.00;;;18.40;99.90;;;;;;8293029;28;20036;-82
2022/09/08 09:06:51;;;;;;;0.00;0.00;;;18.80;99.90;;;;;;8292211;28;20036;-81
2022/09/08 09:11:24;;;;;;;0.10;0.10;;;18.80;99.90;;;;;;8227820;28;20052;-82
2022/09/08 09:16:02;;;;;;;0.20;0.20;;;18.70;99.90;;;;;;8297680;28;20113;-82
2022/09/08 09:20:34;;;;;;;0.10;0.10;;;19.70;99.90;;;;;;8281435;28;20036;-82
2022/09/08 09:24:59;;;;;;;0.00;0.00;;;20.30;99.90;;;;;;8237066;28;20030;-82
2022/09/08 09:29:08;;;;;;;0.10;0.10;;;21.20;99.90;;;;;;8279919;28;20025;-81
2022/09/08 09:33:46;;;;;;;0.57;0.45;;;22.10;99.90;;;;;;8285025;28;20511;-82
2022/09/08 09:38:05;;;;;;;0.10;0.10;;;21.70;99.90;;;;;;8300332;28;20026;-82
2022/09/08 09:42:18;;;;;;;0.00;0.00;;;21.20;99.90;;;;;;8294285;28;20034;-84
2022/09/08 09:46:45;;;;;;;0.10;0.10;;;21.50;99.90;;;;;;8308179;28;20036;-83
2022/09/08 09:51:01;;;;;;;0.00;0.00;;;21.50;99.90;;;;;;8295717;28;20439;-82
2022/09/08 09:55:41;;;;;;;0.05;0.05;;;21.70;99.90;;;;;;8293208;28;20041;-83
2022/09/08 09:59:59;;;;;;;0.05;0.05;;;20.80;99.90;;;;;;8291602;28;20053;-83
2022/09/08 10:04:41;;;;;;;0.00;0.00;;;20.30;99.90;;;;;;8307656;28;20091;-82
2022/09/08 10:09:00;;;;;;;0.10;0.10;;;20.30;99.90;;;;;;8300560;28;20164;-83
2022/09/08 10:13:18;;;;;;;0.10;0.10;;;20.90;99.90;;;;;;8297983;28;20628;-82
2022/09/08 10:17:30;;;;;;;0.00;0.00;;;20.80;99.90;;;;;;8297369;28;20022;-81
2022/09/08 10:22:09;;;;;;;0.10;0.10;;;20.90;99.90;;;;;;8279193;28;20381;-82
2022/09/08 10:26:37;;;;;;;0.03;0.03;;;21.10;99.90;;;;;;8273726;28;20030;-81
2022/09/08 10:30:46;;;;;;;0.10;0.10;;;21.10;99.90;;;;;;8285484;28;20125;-82
2022/09/08 10:34:57;;;;;;;0.10;0.10;;;22.30;99.90;;;;;;8288759;28;20571;-81
2022/09/08 10:39:20;;;;;;;0.10;0.10;;;23.70;99.90;;;;;;8287429;28;20026;-81
2022/09/08 10:43:26;;;;;;;0.00;0.00;;;23.00;99.90;;;;;;8308060;28;20075;-82
2022/09/08 10:47:57;;;;;;;0.10;0.10;;;21.70;99.90;;;;;;8284203;28;20037;-82
2022/09/08 10:52:35;;;;;;;0.10;0.10;;;21.60;99.90;;;;;;8304135;28;20032;-82
2022/09/08 10:56:39;;;;;;;0.08;0.08;;;21.80;99.90;;;;;;8302971;28;20144;-82
2022/09/08 11:00:50;;;;;;;0.10;0.10;;;22.80;99.90;;;;;;8277101;28;20026;-81
2022/09/08 11:05:19;;;;;;;0.10;0.10;;;22.90;99.90;;;;;;8280246;28;20041;-82
2022/09/08 11:09:34;;;;;;;0.10;0.10;;;22.90;99.90;;;;;;8295760;28;20068;-80
2022/09/08 11:13:42;;;;;;;0.10;0.10;;;23.80;99.90;;;;;;8281268;28;20030;-82
2022/09/08 11:17:46;;;;;;;0.10;0.10;;;23.80;99.90;;;;;;8313049;28;20036;-82
2022/09/08 11:22:21;;;;;;;0.03;0.03;;;24.40;99.90;;;;;;8283072;28;20225;-81
2022/09/08 11:26:24;;;;;;;0.10;0.10;;;25.80;99.90;;;;;;8301138;28;20022;-80
2022/09/08 11:30:43;;;;;;;0.05;0.05;;;26.00;99.90;;;;;;8311185;28;20026;-82
2022/09/08 11:34:44;;;;;;;0.10;0.10;;;25.20;99.90;;;;;;8311969;28;20210;-81
2022/09/08 11:39:03;;;;;;;0.10;0.10;;;25.90;99.90;;;;;;8297965;28;20534;-81
2022/09/08 11:43:34;;;;;;;0.10;0.10;;;26.60;99.90;;;;;;8293926;28;20048;-80
2022/09/08 11:48:03;;;;;;;1.42;0.70;;;27.40;99.90;;;;;;8315594;28;20030;-81
2022/09/08 11:52:34;;;;;;;1.80;0.70;;;26.90;99.90;;;;;;8292019;28;20021;-81
2022/09/08 11:57:04;;;;;;;0.70;0.70;;;25.80;99.90;;;;;;8303433;28;20153;-82
2022/09/08 12:01:12;;;;;;;2.28;0.82;;;26.60;99.90;;;;;;8306496;28;20411;-82
2022/09/08 12:05:32;;;;;;;2.28;1.20;;;27.50;99.90;;;;;;8313663;28;20060;-81
2022/09/08 12:09:57;;;;;;;1.40;1.00;;;27.80;99.90;;;;;;8295193;28;20034;-80
2022/09/08 12:14:17;;;;;;;1.15;0.90;;;27.80;99.90;;;;;;8318262;28;20330;-83
2022/09/08 12:18:24;;;;;;;3.20;0.88;;;28.20;99.50;;;;;;8316714;28;20025;-82
2022/09/08 12:22:44;;;;;;;1.10;1.00;;;28.50;98.70;;;;;;8299126;28;20121;-82
2022/09/08 12:26:56;;;;;;;1.73;0.98;;;28.60;97.10;;;;;;8298061;28;20033;-81
2022/09/08 12:31:26;;;;;;;1.63;0.98;;;28.80;96.50;;;;;;8298064;28;20108;-81
2022/09/08 12:35:49;;;;;;;1.55;0.90;;;29.40;95.20;;;;;;8316759;28;20084;-82
2022/09/08 12:40:07;;;;;;;0.73;0.70;;;28.70;95.50;;;;;;8315864;28;20025;-83
2022/09/08 12:44:27;;;;;;;1.63;0.50;;;27.70;95.20;;;;;;8293573;28;20030;-82
2022/09/08 12:48:56;;;;;;;1.58;0.60;;;27.60;95.50;;;;;;8315755;28;20091;-81
2022/09/08 12:53:08;;;;;;;0.73;0.50;;;28.40;94.60;;;;;;8298059;28;20040;-83
2022/09/08 12:57:28;;;;;;;1.95;0.88;;;28.70;94.80;;;;;;8313291;28;20034;-81
2022/09/08 13:01:34;;;;;;;4.15;0.70;;;26.50;95.80;;;;;;8294231;28;20036;-83
2022/09/08 13:05:40;;;;;;;2.20;1.02;;;27.80;96.80;;;;;;8317449;28;20451;-81
2022/09/08 13:09:54;;;;;;;1.25;0.68;;;29.40;91.10;;;;;;8311247;28;20105;-82
2022/09/08 13:14:04;;;;;;;2.30;0.70;;;30.10;87.40;;;;;;8297719;28;20046;-83
2022/09/08 13:18:08;;;;;;;;;;;29.70;91.10;;;;;;8300887;28;20037;-82
2022/09/08 13:22:32;;;;;;;0.65;0.50;;;30.40;88.90;;;;;;8303374;28;19951;-81
2022/09/08 13:26:51;;;;;;;1.73;0.80;;;30.20;83.60;;;;;;8318223;28;20038;-84
2022/09/08 13:31:32;;;;;;;1.25;0.57;;;28.90;89.00;;;;;;8321298;28;20034;-81
2022/09/08 13:36:11;;;;;;;0.93;0.73;;;25.90;93.70;;;;;;8321566;28;20044;-82
2022/09/08 13:40:12;;;;;;;1.50;0.68;;;27.60;95.50;;;;;;8305275;28;20113;-82
2022/09/08 13:44:50;;;;;;;1.33;0.60;;;30.60;85.20;;;;;;8315395;28;20053;-82
2022/09/08 13:49:18;;;;;;;1.85;0.68;;;28.10;87.80;;;;;;8289708;28;20033;-83
2022/09/08 13:53:32;;;;;;;0.70;0.40;;;28.50;91.20;;;;;;8279256;28;20025;-83
2022/09/08 13:58:09;;;;;;;2.28;0.70;;;30.80;79.00;;;;;;8298374;28;20032;-80
2022/09/08 14:02:32;;;;;;;0.32;0.32;;;30.60;81.80;;;;;;8256547;28;20719;-81
2022/09/08 14:06:55;;;;;;;1.70;0.60;;;30.90;75.90;;;;;;8283419;28;20504;-82
2022/09/08 14:11:25;;;;;;;1.67;0.60;;;31.40;78.30;;;;;;8289390;28;20088;-82
2022/09/08 14:15:27;;;;;;;0.93;0.60;;;31.80;74.60;;;;;;8285207;28;20025;-82
2022/09/08 14:20:03;;;;;;;2.92;0.50;;;32.00;72.50;;;;;;8309021;28;20029;-81
2022/09/08 14:24:16;;;;;;;0.68;0.40;;;31.80;70.90;;;;;;8323318;22;20070;-78
2022/09/08 14:28:19;;;;;;;0.65;0.50;;;32.00;68.40;;;;;;8307320;28;20040;-78
2022/09/08 14:32:27;;;;;;;3.70;0.45;;;29.70;71.10;;;;;;8291874;28;20033;-78
2022/09/08 14:36:57;;;;;;;0.55;0.50;;;30.10;72.80;;;;;;8300086;28;20091;-79
2022/09/08 14:41:13;;;;;;;1.27;0.65;;;31.40;71.60;;;;;;8274512;28;20547;-78
2022/09/08 14:45:23;;;;;;;2.60;0.65;;;31.40;69.80;;;;;;8314473;28;20021;-79
2022/09/08 14:50:01;;;;;;;0.40;0.40;;;32.70;65.70;;;;;;8309576;28;20026;-78
2022/09/08 14:54:14;;;;;;;2.88;0.52;;;31.10;64.10;;;;;;8313146;28;20075;-78
2022/09/08 14:58:55;;;;;;;0.57;0.40;;;27.70;75.00;;;;;;8306041;28;20037;-78
2022/09/08 15:03:00;;;;;;;1.55;0.65;;;27.30;77.80;;;;;;8300245;28;20030;-78
2022/09/08 15:07:07;;;;;;;1.75;0.65;;;25.20;86.30;;;;;;8320003;28;20032;-78
2022/09/08 15:11:32;;;;;;;1.13;0.55;;;24.00;90.90;;;;;;8303453;28;20040;-77
2022/09/08 15:15:34;;;;;;;3.53;0.60;;;23.10;94.20;;;;;;8312871;28;20029;-78
2022/09/08 15:19:47;;;;;;;1.70;0.52;;;22.70;93.90;;;;;;8307942;28;20028;-78
2022/09/08 15:23:54;;;;;;;0.70;0.40;;;22.20;96.60;;;;;;8304015;28;20237;-77
2022/09/08 15:27:55;;;;;;;1.05;0.60;;;21.90;97.40;;;;;;8301018;28;20140;-77
2022/09/08 15:32:05;;;;;;;1.27;0.55;;;21.80;99.30;;;;;;8319503;28;20029;-77
2022/09/08 15:36:19;;;;;;;8.63;1.02;;;21.80;99.90;;;;;;8299916;28;20049;-77
2022/09/08 15:40:22;;;;;;;5.28;1.00;;;23.00;96.60;;;;;;8315507;28;20030;-77
2022/09/08 15:44:47;;;;;;;30.98;2.03;;;25.90;91.60;;;;;;8319114;28;20044;-78
2022/09/08 15:48:49;;;;;;;25.95;3.22;;;29.10;82.40;;;;;;8307166;28;20506;-78
2022/09/08 15:53:17;;;;;;;1.60;0.50;;;30.10;76.20;;;;;;8303337;28;20026;-78
2022/09/08 15:57:27;;;;;;;3.00;0.80;;;29.10;74.50;;;;;;8267485;28;20491;-77
2022/09/08 16:01:55;;;;;;;1.10;0.60;;;28.00;75.30;;;;;;8322956;28;20560;-78
2022/09/08 16:05:57;;;;;;;0.70;0.40;;;27.20;79.50;;;;;;8328203;28;20033;-78
2022/09/08 16:10:06;;;;;;;0.70;0.60;;;25.50;84.80;;;;;;8323750;28;20017;-78
2022/09/08 16:14:48;;;;;;;2.90;0.40;;;23.80;90.30;;;;;;8310411;28;20021;-77
2022/09/08 16:18:54;;;;;;;1.45;0.55;;;22.50;93.50;;;;;;8319180;28;20017;-78
2022/09/08 16:22:58;;;;;;;2.65;0.50;;;21.70;94.00;;;;;;8320992;28;20672;-78
2022/09/08 16:27:21;;;;;;;1.67;0.75;;;21.30;96.50;;;;;;8302124;28;20029;-78
2022/09/08 16:31:29;;;;;;;1.25;0.52;;;21.00;97.00;;;;;;8322948;28;20111;-78
2022/09/08 16:35:51;;;;;;;1.67;0.63;;;20.70;98.40;;;;;;8324589;28;20403;-78
2022/09/08 16:40:19;;;;;;;1.85;0.60;;;20.60;99.10;;;;;;8315922;28;20030;-78
2022/09/08 16:44:28;;;;;;;4.30;0.82;;;20.40;99.90;;;;;;8313952;28;20046;-78
2022/09/08 16:48:44;;;;;;;1.58;0.60;;;20.10;99.90;;;;;;8313192;28;20090;-78
2022/09/08 16:53:12;;;;;;;3.33;1.00;;;19.90;99.90;;;;;;8300066;28;20049;-77
2022/09/08 16:57:37;;;;;;;1.58;1.00;;;19.50;99.90;;;;;;8301188;28;20033;-78
2022/09/08 17:01:47;;;;;;;0.85;0.60;;;19.40;99.90;;;;;;8308330;28;20021;-78
2022/09/08 17:06:30;;;;;;;3.65;0.70;;;19.10;99.90;;;;;;8325223;28;20113;-79
2022/09/08 17:10:38;;;;;;;3.30;0.70;;;18.80;99.90;;;;;;8306210;28;20075;-79
2022/09/08 17:14:38;;;;;;;0.60;0.50;;;18.50;99.90;;;;;;8321196;28;20025;-77
2022/09/08 17:19:12;;;;;;;0.90;0.63;;;18.30;99.90;;;;;;8301335;28;20022;-78
2022/09/08 17:23:31;;;;;;;0.50;0.50;;;18.10;99.90;;;;;;8316905;28;20028;-77
2022/09/08 17:27:35;;;;;;;4.38;0.77;;;17.90;99.90;;;;;;8303738;28;20037;-78
2022/09/08 17:31:37;;;;;;;1.30;0.65;;;17.50;99.90;;;;;;8321728;28;20403;-78
2022/09/08 17:35:51;;;;;;;4.65;1.13;;;17.30;99.90;;;;;;8320511;28;20033;-78
2022/09/08 17:40:17;;;;;;;3.97;1.02;;;17.20;99.90;;;;;;8304629;28;20442;-77
2022/09/08 17:44:47;;;;;;;5.97;1.80;;;17.10;99.90;;;;;;8320162;28;20542;-78
2022/09/08 17:49:10;;;;;;;2.95;1.27;;;16.80;99.90;;;;;;8320020;28;20033;-78
2022/09/08 17:53:17;;;;;;;1.38;0.90;;;16.70;99.90;;;;;;8320243;28;20087;-80
2022/09/08 17:57:25;;;;;;;1.90;0.80;;;16.40;99.90;;;;;;8316785;28;20040;-80
2022/09/08 18:02:08;;;;;;;1.95;0.77;;;16.20;99.90;;;;;;8317875;28;20013;-78
2022/09/08 18:06:20;;;;;;;2.05;0.75;;;16.10;99.90;;;;;;8311166;28;20036;-77
2022/09/08 18:10:47;;;;;;;0.75;0.55;;;15.80;99.90;;;;;;8290876;28;20029;-79
2022/09/08 18:14:55;;;;;;;1.98;0.70;;;15.70;99.90;;;;;;8303677;28;20068;-79
2022/09/08 18:19:23;;;;;;;2.85;0.70;;;15.60;99.90;;;;;;8304527;28;20076;-80
2022/09/08 18:23:36;;;;;;;1.40;0.82;;;15.40;99.90;;;;;;8311351;28;20044;-78
2022/09/08 18:27:36;;;;;;;1.20;0.70;;;15.30;99.90;;;;;;8294015;28;20411;-77
2022/09/08 18:32:08;;;;;;;1.10;0.80;;;15.10;99.90;;;;;;8310069;28;20029;-78
2022/09/08 18:36:52;;;;;;;1.10;0.80;;;15.00;99.90;;;;;;8292899;28;20060;-78
2022/09/08 18:41:20;;;;;;;1.70;0.95;;;14.80;99.90;;;;;;8311706;28;20034;-77
2022/09/08 18:45:42;;;;;;;1.08;0.80;;;14.70;99.90;;;;;;8297122;28;20243;-78
2022/09/08 18:50:06;;;;;;;1.90;0.80;;;14.50;99.90;;;;;;8326760;28;20104;-79
2022/09/08 18:54:12;;;;;;;5.80;0.90;;;14.40;99.90;;;;;;8316574;28;20765;-77
2022/09/08 18:58:32;;;;;;;3.40;1.10;;;14.50;99.90;;;;;;8323858;28;20036;-78
2022/09/08 19:02:40;;;;;;;1.92;0.93;;;14.40;99.90;;;;;;8302315;28;20060;-77
2022/09/08 19:06:47;;;;;;;2.13;1.00;;;14.40;99.90;;;;;;8317655;28;20033;-78
2022/09/08 19:10:51;;;;;;;1.75;0.77;;;14.20;99.90;;;;;;8308451;28;20060;-77
2022/09/08 19:15:00;;;;;;;2.28;1.10;;;13.90;99.90;;;;;;8328745;28;20026;-80
2022/09/08 19:19:20;;;;;;;2.30;1.17;;;13.70;99.90;;;;;;8299189;28;20527;-78
2022/09/08 19:23:21;;;;;;;2.63;1.07;;;13.40;99.90;;;;;;8310241;28;20099;-78
2022/09/08 19:27:47;;;;;;;3.35;1.10;;;13.20;99.90;;;;;;8301074;28;20026;-78
2022/09/08 19:31:57;;;;;;;4.05;1.35;;;13.00;99.90;;;;;;8308595;28;20120;-78
2022/09/08 19:36:07;;;;;;;2.27;1.10;;;13.00;99.90;;;;;;8324965;28;20080;-78
2022/09/08 19:40:27;;;;;;;;;;;12.80;99.90;;;;;;8306356;28;20044;-79
2022/09/08 19:44:42;;;;;;;2.67;1.15;;;12.90;99.90;;;;;;8312876;28;19909;-77
2022/09/08 19:48:54;;;;;;;1.52;1.17;;;12.80;99.90;;;;;;8319526;28;20053;-77
2022/09/08 19:53:31;;;;;;;5.13;1.30;;;12.60;99.90;;;;;;8297423;28;20018;-78
2022/09/08 19:57:34;;;;;;;2.40;1.25;;;12.50;99.90;;;;;;8311693;28;20811;-78
2022/09/08 20:01:48;;;;;;;3.60;1.30;;;12.40;99.90;;;;;;8286248;28;20041;-77
2022/09/08 20:05:51;;;;;;;2.33;1.27;;;12.30;99.90;;;;;;8297695;28;20034;-77
2022/09/08 20:10:12;;;;;;;2.42;1.20;;;12.40;99.90;;;;;;8302766;28;20029;-77
2022/09/08 20:14:19;;;;;;;2.25;1.05;;;12.50;99.90;;;;;;8325931;28;20021;-77
2022/09/08 20:18:35;;;;;;;6.40;1.20;;;12.60;99.90;;;;;;8308268;28;20178;-78
2022/09/08 20:22:53;;;;;;;3.40;1.33;;;12.70;99.90;;;;;;8299304;23;20439;-81
2022/09/08 20:27:00;;;;;;;1.50;0.93;;;12.80;99.90;;;;;;8268832;28;20034;-81
2022/09/08 20:31:16;;;;;;;3.60;1.33;;;12.70;99.90;;;;;;8265404;28;20018;-82
2022/09/08 20:35:32;;;;;;;2.92;1.10;;;12.60;99.90;;;;;;8254962;28;20027;-81
2022/09/08 20:40:01;;;;;;;1.77;0.93;;;12.40;99.90;;;;;;8254662;28;20109;-81
2022/09/08 20:44:24;;;;;;;6.00;1.10;;;12.20;99.90;;;;;;8258312;28;20130;-81
2022/09/08 20:48:44;;;;;;;1.52;1.20;;;12.20;99.90;;;;;;8257698;28;20467;-81
2022/09/08 20:53:11;;;;;;;3.42;1.35;;;12.10;99.90;;;;;;8242666;28;20057;-82
2022/09/08 20:57:46;;;;;;;3.20;1.17;;;11.90;99.90;;;;;;8236703;28;20081;-80
2022/09/08 21:01:52;;;;;;;1.95;1.17;;;11.80;99.90;;;;;;8263082;28;20753;-80
2022/09/08 21:06:04;;;;;;;2.35;1.27;;;11.90;99.90;;;;;;8261003;28;20037;-81
2022/09/08 21:10:19;;;;;;;2.38;1.20;;;11.90;99.90;;;;;;8246077;28;20031;-80
2022/09/08 21:14:42;;;;;;;2.05;1.25;;;12.00;99.90;;;;;;8259639;28;20053;-81
2022/09/08 21:18:50;;;;;;;4.65;1.50;;;11.90;99.90;;;;;;8247416;28;20068;-81
2022/09/08 21:23:03;;;;;;;4.40;1.20;;;11.90;99.90;;;;;;8243126;28;20041;-80
2022/09/08 21:27:34;;;;;;;3.88;1.52;;;11.80;99.90;;;;;;8245864;28;20045;-80
2022/09/08 21:31:38;;;;;;;3.70;1.20;;;11.50;99.90;;;;;;8262151;28;20026;-81
2022/09/08 21:35:41;;;;;;;2.28;1.35;;;11.50;99.90;;;;;;8247951;28;20149;-81
2022/09/08 21:39:59;;;;;;;1.20;1.10;;;11.50;99.90;;;;;;8242287;28;20508;-80
2022/09/08 21:44:14;;;;;;;2.25;1.40;;;11.60;99.90;;;;;;8247488;28;20039;-80
2022/09/08 21:48:21;;;;;;;1.88;1.40;;;11.50;99.90;;;;;;8242720;28;20042;-79
2022/09/08 21:52:28;;;;;;;2.97;1.27;;;11.30;99.90;;;;;;8238314;28;20030;-80
2022/09/08 21:56:40;;;;;;;2.70;1.27;;;11.30;99.90;;;;;;8243827;28;20408;-80
2022/09/08 22:00:56;;;;;;;3.15;1.55;;;11.30;99.90;;;;;;8262647;28;20400;-81